sensor_id;sensor_type;location;lat;lon;timestamp;P1;durP1;ratioP1;P2;durP2;ratioP2
63699;SDS011;49845;47.130;142.766;2023-06-14T00:00:05;8.27;;;5.27;;
63699;SDS011;49845;47.130;142.766;2023-06-14T00:02:36;9.40;;;5.13;;
63699;SDS011;49845;47.130;142.766;2023-06-14T00:05:07;5.47;;;4.70;;
63699;SDS011;49845;47.130;142.766;2023-06-14T00:07:40;9.80;;;5.40;;
63699;SDS011;49845;47.130;142.766;2023-06-14T00:10:13;6.60;;;5.43;;
63699;SDS011;49845;47.130;142.766;2023-06-14T00:12:46;15.87;;;5.80;;
63699;SDS011;49845;47.130;142.766;2023-06-14T00:15:16;10.13;;;5.27;;
63699;SDS011;49845;47.130;142.766;2023-06-14T00:17:47;11.43;;;5.83;;
63699;SDS011;49845;47.130;142.766;2023-06-14T00:20:17;8.37;;;5.93;;
63699;SDS011;49845;47.130;142.766;2023-06-14T00:22:48;8.70;;;6.37;;
63699;SDS011;49845;47.130;142.766;2023-06-14T00:25:22;10.63;;;7.00;;
63699;SDS011;49845;47.130;142.766;2023-06-14T00:27:55;8.43;;;6.00;;
63699;SDS011;49845;47.130;142.766;2023-06-14T00:30:27;11.90;;;6.83;;
63699;SDS011;49845;47.130;142.766;2023-06-14T00:32:58;11.83;;;7.33;;
63699;SDS011;49845;47.130;142.766;2023-06-14T00:35:28;13.70;;;6.60;;
63699;SDS011;49845;47.130;142.766;2023-06-14T00:37:59;9.10;;;6.80;;
63699;SDS011;49845;47.130;142.766;2023-06-14T00:40:31;11.20;;;6.63;;
63699;SDS011;49845;47.130;142.766;2023-06-14T00:43:02;9.43;;;6.33;;
63699;SDS011;49845;47.130;142.766;2023-06-14T00:45:33;8.47;;;6.10;;
63699;SDS011;49845;47.130;142.766;2023-06-14T00:48:04;12.27;;;6.70;;
63699;SDS011;49845;47.130;142.766;2023-06-14T00:50:37;11.67;;;7.20;;
63699;SDS011;49845;47.130;142.766;2023-06-14T00:53:09;9.20;;;5.53;;
63699;SDS011;49845;47.130;142.766;2023-06-14T00:55:42;9.97;;;5.27;;
63699;SDS011;49845;47.130;142.766;2023-06-14T00:58:12;11.33;;;5.50;;
63699;SDS011;49845;47.130;142.766;2023-06-14T01:00:44;9.13;;;5.43;;
63699;SDS011;49845;47.130;142.766;2023-06-14T01:03:15;6.43;;;5.23;;
63699;SDS011;49845;47.130;142.766;2023-06-14T01:05:47;8.83;;;4.97;;
63699;SDS011;49845;47.130;142.766;2023-06-14T01:08:21;9.37;;;4.97;;
63699;SDS011;49845;47.130;142.766;2023-06-14T01:11:01;7.97;;;5.50;;
63699;SDS011;49845;47.130;142.766;2023-06-14T01:13:35;10.43;;;5.63;;
63699;SDS011;49845;47.130;142.766;2023-06-14T01:16:07;8.50;;;5.53;;
63699;SDS011;49845;47.130;142.766;2023-06-14T01:18:39;7.93;;;4.57;;
63699;SDS011;49845;47.130;142.766;2023-06-14T01:21:21;6.90;;;3.90;;
63699;SDS011;49845;47.130;142.766;2023-06-14T01:23:53;6.40;;;3.70;;
63699;SDS011;49845;47.130;142.766;2023-06-14T01:26:24;10.37;;;4.80;;
63699;SDS011;49845;47.130;142.766;2023-06-14T01:28:57;7.37;;;4.07;;
63699;SDS011;49845;47.130;142.766;2023-06-14T01:31:28;6.70;;;4.40;;
63699;SDS011;49845;47.130;142.766;2023-06-14T01:34:07;9.68;;;3.60;;
63699;SDS011;49845;47.130;142.766;2023-06-14T01:36:38;8.93;;;3.23;;
63699;SDS011;49845;47.130;142.766;2023-06-14T01:39:13;8.10;;;4.20;;
63699;SDS011;49845;47.130;142.766;2023-06-14T01:41:44;5.13;;;3.47;;
63699;SDS011;49845;47.130;142.766;2023-06-14T01:44:16;6.00;;;3.47;;
63699;SDS011;49845;47.130;142.766;2023-06-14T01:46:48;7.03;;;3.13;;
63699;SDS011;49845;47.130;142.766;2023-06-14T01:49:20;5.07;;;2.80;;
63699;SDS011;49845;47.130;142.766;2023-06-14T01:51:50;7.03;;;2.40;;
63699;SDS011;49845;47.130;142.766;2023-06-14T01:54:23;3.60;;;2.40;;
63699;SDS011;49845;47.130;142.766;2023-06-14T01:56:53;3.47;;;1.87;;
63699;SDS011;49845;47.130;142.766;2023-06-14T01:59:24;5.37;;;2.47;;
63699;SDS011;49845;47.130;142.766;2023-06-14T02:01:55;4.33;;;2.50;;
63699;SDS011;49845;47.130;142.766;2023-06-14T02:04:25;3.43;;;2.40;;
63699;SDS011;49845;47.130;142.766;2023-06-14T02:06:56;5.37;;;2.53;;
63699;SDS011;49845;47.130;142.766;2023-06-14T02:09:28;5.20;;;2.60;;
63699;SDS011;49845;47.130;142.766;2023-06-14T02:11:59;5.77;;;2.33;;
63699;SDS011;49845;47.130;142.766;2023-06-14T02:14:30;7.17;;;2.73;;
63699;SDS011;49845;47.130;142.766;2023-06-14T02:17:01;6.50;;;2.07;;
63699;SDS011;49845;47.130;142.766;2023-06-14T02:19:32;6.53;;;2.43;;
63699;SDS011;49845;47.130;142.766;2023-06-14T02:22:03;8.57;;;3.00;;
63699;SDS011;49845;47.130;142.766;2023-06-14T02:24:36;4.97;;;3.23;;
63699;SDS011;49845;47.130;142.766;2023-06-14T02:27:07;9.27;;;3.17;;
63699;SDS011;49845;47.130;142.766;2023-06-14T02:29:38;10.90;;;2.97;;
63699;SDS011;49845;47.130;142.766;2023-06-14T02:32:08;9.17;;;2.87;;
63699;SDS011;49845;47.130;142.766;2023-06-14T02:34:39;5.77;;;2.60;;
63699;SDS011;49845;47.130;142.766;2023-06-14T02:37:13;8.37;;;2.57;;
63699;SDS011;49845;47.130;142.766;2023-06-14T02:39:45;4.20;;;2.60;;
63699;SDS011;49845;47.130;142.766;2023-06-14T02:42:16;4.30;;;2.43;;
63699;SDS011;49845;47.130;142.766;2023-06-14T02:44:46;5.97;;;2.50;;
63699;SDS011;49845;47.130;142.766;2023-06-14T02:47:18;5.77;;;2.97;;
63699;SDS011;49845;47.130;142.766;2023-06-14T02:49:49;4.40;;;2.53;;
63699;SDS011;49845;47.130;142.766;2023-06-14T02:52:20;11.43;;;2.80;;
63699;SDS011;49845;47.130;142.766;2023-06-14T02:54:54;4.10;;;2.60;;
63699;SDS011;49845;47.130;142.766;2023-06-14T02:57:25;6.80;;;2.77;;
63699;SDS011;49845;47.130;142.766;2023-06-14T02:59:56;7.47;;;3.10;;
63699;SDS011;49845;47.130;142.766;2023-06-14T03:02:26;7.40;;;3.40;;
63699;SDS011;49845;47.130;142.766;2023-06-14T03:04:57;4.43;;;2.73;;
63699;SDS011;49845;47.130;142.766;2023-06-14T03:07:29;7.57;;;2.63;;
63699;SDS011;49845;47.130;142.766;2023-06-14T03:10:01;9.67;;;3.70;;
63699;SDS011;49845;47.130;142.766;2023-06-14T03:12:32;6.03;;;3.40;;
63699;SDS011;49845;47.130;142.766;2023-06-14T03:15:03;7.40;;;3.20;;
63699;SDS011;49845;47.130;142.766;2023-06-14T03:17:34;6.70;;;3.10;;
63699;SDS011;49845;47.130;142.766;2023-06-14T03:20:07;6.67;;;3.30;;
63699;SDS011;49845;47.130;142.766;2023-06-14T03:22:38;7.23;;;3.50;;
63699;SDS011;49845;47.130;142.766;2023-06-14T03:25:10;6.47;;;3.10;;
63699;SDS011;49845;47.130;142.766;2023-06-14T03:27:41;6.37;;;3.37;;
63699;SDS011;49845;47.130;142.766;2023-06-14T03:30:12;5.50;;;3.10;;
63699;SDS011;49845;47.130;142.766;2023-06-14T03:32:51;6.10;;;3.10;;
63699;SDS011;49845;47.130;142.766;2023-06-14T03:35:26;5.47;;;3.43;;
63699;SDS011;49845;47.130;142.766;2023-06-14T03:37:57;4.67;;;3.50;;
63699;SDS011;49845;47.130;142.766;2023-06-14T03:40:30;6.03;;;3.37;;
63699;SDS011;49845;47.130;142.766;2023-06-14T03:43:01;6.33;;;3.13;;
63699;SDS011;49845;47.130;142.766;2023-06-14T03:45:31;4.90;;;3.50;;
63699;SDS011;49845;47.130;142.766;2023-06-14T03:48:02;8.03;;;3.10;;
63699;SDS011;49845;47.130;142.766;2023-06-14T03:50:34;4.33;;;3.67;;
63699;SDS011;49845;47.130;142.766;2023-06-14T03:53:05;7.53;;;3.40;;
63699;SDS011;49845;47.130;142.766;2023-06-14T03:55:37;10.10;;;4.33;;
63699;SDS011;49845;47.130;142.766;2023-06-14T03:58:12;8.67;;;3.57;;
63699;SDS011;49845;47.130;142.766;2023-06-14T04:00:42;4.73;;;3.27;;
63699;SDS011;49845;47.130;142.766;2023-06-14T04:03:13;8.60;;;3.47;;
63699;SDS011;49845;47.130;142.766;2023-06-14T04:05:44;8.33;;;3.70;;
63699;SDS011;49845;47.130;142.766;2023-06-14T04:08:16;7.37;;;4.00;;
63699;SDS011;49845;47.130;142.766;2023-06-14T04:10:49;5.97;;;3.37;;
63699;SDS011;49845;47.130;142.766;2023-06-14T04:13:20;6.37;;;3.30;;
63699;SDS011;49845;47.130;142.766;2023-06-14T04:15:50;4.30;;;3.13;;
63699;SDS011;49845;47.130;142.766;2023-06-14T04:18:21;6.47;;;3.97;;
63699;SDS011;49845;47.130;142.766;2023-06-14T04:20:51;7.30;;;3.70;;
63699;SDS011;49845;47.130;142.766;2023-06-14T04:23:24;7.13;;;4.17;;
63699;SDS011;49845;47.130;142.766;2023-06-14T04:25:57;5.17;;;3.90;;
63699;SDS011;49845;47.130;142.766;2023-06-14T04:28:30;6.77;;;4.10;;
63699;SDS011;49845;47.130;142.766;2023-06-14T04:31:05;6.93;;;4.13;;
63699;SDS011;49845;47.130;142.766;2023-06-14T04:33:36;5.27;;;3.60;;
63699;SDS011;49845;47.130;142.766;2023-06-14T04:36:11;5.27;;;3.53;;
63699;SDS011;49845;47.130;142.766;2023-06-14T04:38:45;4.87;;;3.90;;
63699;SDS011;49845;47.130;142.766;2023-06-14T04:41:18;7.03;;;3.40;;
63699;SDS011;49845;47.130;142.766;2023-06-14T04:43:50;7.30;;;3.90;;
63699;SDS011;49845;47.130;142.766;2023-06-14T04:46:21;4.63;;;3.40;;
63699;SDS011;49845;47.130;142.766;2023-06-14T04:48:52;4.63;;;3.50;;
63699;SDS011;49845;47.130;142.766;2023-06-14T04:51:22;5.00;;;3.33;;
63699;SDS011;49845;47.130;142.766;2023-06-14T04:53:57;8.60;;;3.60;;
63699;SDS011;49845;47.130;142.766;2023-06-14T04:56:30;10.07;;;4.37;;
63699;SDS011;49845;47.130;142.766;2023-06-14T04:59:01;7.03;;;3.90;;
63699;SDS011;49845;47.130;142.766;2023-06-14T05:01:32;6.63;;;3.80;;
63699;SDS011;49845;47.130;142.766;2023-06-14T05:04:03;4.60;;;3.10;;
63699;SDS011;49845;47.130;142.766;2023-06-14T05:06:34;8.07;;;3.80;;
63699;SDS011;49845;47.130;142.766;2023-06-14T05:09:06;7.03;;;3.47;;
63699;SDS011;49845;47.130;142.766;2023-06-14T05:11:38;8.03;;;4.30;;
63699;SDS011;49845;47.130;142.766;2023-06-14T05:14:10;6.13;;;4.03;;
63699;SDS011;49845;47.130;142.766;2023-06-14T05:16:40;6.30;;;3.37;;
63699;SDS011;49845;47.130;142.766;2023-06-14T05:19:11;4.93;;;3.10;;
63699;SDS011;49845;47.130;142.766;2023-06-14T05:21:42;7.87;;;3.50;;
63699;SDS011;49845;47.130;142.766;2023-06-14T05:24:13;7.93;;;3.70;;
63699;SDS011;49845;47.130;142.766;2023-06-14T05:26:46;8.37;;;3.50;;
63699;SDS011;49845;47.130;142.766;2023-06-14T05:29:17;4.77;;;3.03;;
63699;SDS011;49845;47.130;142.766;2023-06-14T05:31:47;10.37;;;3.90;;
63699;SDS011;49845;47.130;142.766;2023-06-14T05:34:18;7.47;;;3.57;;
63699;SDS011;49845;47.130;142.766;2023-06-14T05:36:49;8.77;;;3.67;;
63699;SDS011;49845;47.130;142.766;2023-06-14T05:39:19;8.90;;;4.33;;
63699;SDS011;49845;47.130;142.766;2023-06-14T05:41:53;8.37;;;3.80;;
63699;SDS011;49845;47.130;142.766;2023-06-14T05:44:24;8.20;;;3.97;;
63699;SDS011;49845;47.130;142.766;2023-06-14T05:46:54;9.17;;;4.03;;
63699;SDS011;49845;47.130;142.766;2023-06-14T05:49:25;9.80;;;3.97;;
63699;SDS011;49845;47.130;142.766;2023-06-14T05:51:55;8.23;;;4.03;;
63699;SDS011;49845;47.130;142.766;2023-06-14T05:54:26;8.83;;;3.83;;
63699;SDS011;49845;47.130;142.766;2023-06-14T05:56:58;8.20;;;4.17;;
63699;SDS011;49845;47.130;142.766;2023-06-14T05:59:31;10.63;;;3.70;;
63699;SDS011;49845;47.130;142.766;2023-06-14T06:02:01;8.47;;;4.13;;
63699;SDS011;49845;47.130;142.766;2023-06-14T06:04:33;13.07;;;4.13;;
63699;SDS011;49845;47.130;142.766;2023-06-14T06:07:03;10.43;;;4.07;;
63699;SDS011;49845;47.130;142.766;2023-06-14T06:09:35;5.93;;;3.70;;
63699;SDS011;49845;47.130;142.766;2023-06-14T06:12:07;9.07;;;3.70;;
63699;SDS011;49845;47.130;142.766;2023-06-14T06:14:38;8.10;;;3.47;;
63699;SDS011;49845;47.130;142.766;2023-06-14T06:17:08;5.37;;;3.50;;
63699;SDS011;49845;47.130;142.766;2023-06-14T06:19:39;7.13;;;3.90;;
63699;SDS011;49845;47.130;142.766;2023-06-14T06:22:10;6.40;;;3.43;;
63699;SDS011;49845;47.130;142.766;2023-06-14T06:24:40;9.07;;;3.73;;
63699;SDS011;49845;47.130;142.766;2023-06-14T06:27:13;15.70;;;4.13;;
63699;SDS011;49845;47.130;142.766;2023-06-14T06:29:44;7.63;;;4.10;;
63699;SDS011;49845;47.130;142.766;2023-06-14T06:32:16;7.00;;;3.57;;
63699;SDS011;49845;47.130;142.766;2023-06-14T06:34:46;7.60;;;3.60;;
63699;SDS011;49845;47.130;142.766;2023-06-14T06:37:17;9.23;;;3.77;;
63699;SDS011;49845;47.130;142.766;2023-06-14T06:39:49;8.10;;;4.00;;
63699;SDS011;49845;47.130;142.766;2023-06-14T06:42:21;9.40;;;3.97;;
63699;SDS011;49845;47.130;142.766;2023-06-14T06:44:51;7.50;;;4.37;;
63699;SDS011;49845;47.130;142.766;2023-06-14T06:47:22;6.23;;;4.07;;
63699;SDS011;49845;47.130;142.766;2023-06-14T06:49:52;8.03;;;4.57;;
63699;SDS011;49845;47.130;142.766;2023-06-14T06:52:23;10.17;;;5.30;;
63699;SDS011;49845;47.130;142.766;2023-06-14T06:54:54;6.97;;;4.10;;
63699;SDS011;49845;47.130;142.766;2023-06-14T06:57:26;8.73;;;4.50;;
63699;SDS011;49845;47.130;142.766;2023-06-14T06:59:57;7.53;;;4.50;;
63699;SDS011;49845;47.130;142.766;2023-06-14T07:02:28;8.50;;;4.40;;
63699;SDS011;49845;47.130;142.766;2023-06-14T07:04:59;8.77;;;4.77;;
63699;SDS011;49845;47.130;142.766;2023-06-14T07:07:30;9.07;;;4.50;;
63699;SDS011;49845;47.130;142.766;2023-06-14T07:10:00;7.87;;;4.23;;
63699;SDS011;49845;47.130;142.766;2023-06-14T07:12:34;10.17;;;5.10;;
63699;SDS011;49845;47.130;142.766;2023-06-14T07:15:07;9.30;;;4.70;;
63699;SDS011;49845;47.130;142.766;2023-06-14T07:17:39;11.80;;;4.80;;
63699;SDS011;49845;47.130;142.766;2023-06-14T07:20:10;13.53;;;4.97;;
63699;SDS011;49845;47.130;142.766;2023-06-14T07:22:42;9.33;;;6.83;;
63699;SDS011;49845;47.130;142.766;2023-06-14T07:25:13;10.67;;;6.70;;
63699;SDS011;49845;47.130;142.766;2023-06-14T07:27:46;12.60;;;6.87;;
63699;SDS011;49845;47.130;142.766;2023-06-14T07:30:16;10.77;;;5.50;;
63699;SDS011;49845;47.130;142.766;2023-06-14T07:32:47;11.63;;;5.87;;
63699;SDS011;49845;47.130;142.766;2023-06-14T07:35:18;11.83;;;5.00;;
63699;SDS011;49845;47.130;142.766;2023-06-14T07:37:48;11.33;;;5.67;;
63699;SDS011;49845;47.130;142.766;2023-06-14T07:40:20;11.33;;;5.60;;
63699;SDS011;49845;47.130;142.766;2023-06-14T07:42:52;14.17;;;6.20;;
63699;SDS011;49845;47.130;142.766;2023-06-14T07:45:24;16.07;;;6.63;;
63699;SDS011;49845;47.130;142.766;2023-06-14T07:47:55;11.17;;;5.70;;
63699;SDS011;49845;47.130;142.766;2023-06-14T07:50:25;9.97;;;5.93;;
63699;SDS011;49845;47.130;142.766;2023-06-14T07:52:56;11.03;;;5.40;;
63699;SDS011;49845;47.130;142.766;2023-06-14T07:55:27;9.67;;;5.37;;
63699;SDS011;49845;47.130;142.766;2023-06-14T07:58:13;12.53;;;4.77;;
63699;SDS011;49845;47.130;142.766;2023-06-14T08:00:43;9.97;;;4.83;;
63699;SDS011;49845;47.130;142.766;2023-06-14T08:03:15;9.90;;;4.80;;
63699;SDS011;49845;47.130;142.766;2023-06-14T08:05:46;8.43;;;5.40;;
63699;SDS011;49845;47.130;142.766;2023-06-14T08:08:16;15.53;;;5.27;;
63699;SDS011;49845;47.130;142.766;2023-06-14T08:10:47;13.17;;;5.70;;
63699;SDS011;49845;47.130;142.766;2023-06-14T08:13:19;8.13;;;5.20;;
63699;SDS011;49845;47.130;142.766;2023-06-14T08:15:50;8.03;;;5.47;;
63699;SDS011;49845;47.130;142.766;2023-06-14T08:18:21;7.47;;;5.10;;
63699;SDS011;49845;47.130;142.766;2023-06-14T08:20:52;6.13;;;4.77;;
63699;SDS011;49845;47.130;142.766;2023-06-14T08:23:25;10.60;;;7.30;;
63699;SDS011;49845;47.130;142.766;2023-06-14T08:25:56;12.60;;;7.97;;
63699;SDS011;49845;47.130;142.766;2023-06-14T08:28:33;9.03;;;6.30;;
63699;SDS011;49845;47.130;142.766;2023-06-14T08:31:04;13.57;;;6.40;;
63699;SDS011;49845;47.130;142.766;2023-06-14T08:33:34;9.20;;;5.80;;
63699;SDS011;49845;47.130;142.766;2023-06-14T08:36:05;11.60;;;6.50;;
63699;SDS011;49845;47.130;142.766;2023-06-14T08:38:35;11.43;;;5.87;;
63699;SDS011;49845;47.130;142.766;2023-06-14T08:41:09;11.33;;;5.37;;
63699;SDS011;49845;47.130;142.766;2023-06-14T08:43:44;8.63;;;5.67;;
63699;SDS011;49845;47.130;142.766;2023-06-14T08:46:15;10.20;;;5.50;;
63699;SDS011;49845;47.130;142.766;2023-06-14T08:48:50;11.37;;;6.00;;
63699;SDS011;49845;47.130;142.766;2023-06-14T08:51:22;10.60;;;5.97;;
63699;SDS011;49845;47.130;142.766;2023-06-14T08:54:01;10.73;;;6.43;;
63699;SDS011;49845;47.130;142.766;2023-06-14T08:56:33;8.13;;;6.07;;
63699;SDS011;49845;47.130;142.766;2023-06-14T08:59:10;10.77;;;6.27;;
63699;SDS011;49845;47.130;142.766;2023-06-14T09:01:41;15.83;;;6.90;;
63699;SDS011;49845;47.130;142.766;2023-06-14T09:04:38;9.83;;;7.40;;
63699;SDS011;49845;47.130;142.766;2023-06-14T09:07:12;7.90;;;6.20;;
63699;SDS011;49845;47.130;142.766;2023-06-14T09:09:44;13.10;;;6.37;;
63699;SDS011;49845;47.130;142.766;2023-06-14T09:12:32;7.40;;;5.63;;
63699;SDS011;49845;47.130;142.766;2023-06-14T09:15:22;9.17;;;6.70;;
63699;SDS011;49845;47.130;142.766;2023-06-14T09:18:17;9.17;;;6.07;;
63699;SDS011;49845;47.130;142.766;2023-06-14T09:21:27;13.43;;;6.80;;
63699;SDS011;49845;47.130;142.766;2023-06-14T09:23:58;11.43;;;7.03;;
63699;SDS011;49845;47.130;142.766;2023-06-14T09:26:31;11.47;;;7.90;;
63699;SDS011;49845;47.130;142.766;2023-06-14T09:29:04;9.80;;;5.83;;
63699;SDS011;49845;47.130;142.766;2023-06-14T09:31:38;9.20;;;6.43;;
63699;SDS011;49845;47.130;142.766;2023-06-14T09:34:09;8.87;;;6.40;;
63699;SDS011;49845;47.130;142.766;2023-06-14T09:36:41;14.20;;;8.47;;
63699;SDS011;49845;47.130;142.766;2023-06-14T09:39:16;9.23;;;5.83;;
63699;SDS011;49845;47.130;142.766;2023-06-14T09:41:48;10.37;;;6.73;;
63699;SDS011;49845;47.130;142.766;2023-06-14T09:44:19;9.60;;;6.90;;
63699;SDS011;49845;47.130;142.766;2023-06-14T09:46:58;12.20;;;7.60;;
63699;SDS011;49845;47.130;142.766;2023-06-14T09:49:29;9.90;;;6.43;;
63699;SDS011;49845;47.130;142.766;2023-06-14T09:52:01;10.77;;;6.30;;
63699;SDS011;49845;47.130;142.766;2023-06-14T09:54:33;10.50;;;5.77;;
63699;SDS011;49845;47.130;142.766;2023-06-14T09:57:12;8.17;;;5.50;;
63699;SDS011;49845;47.130;142.766;2023-06-14T09:59:45;7.97;;;5.37;;
63699;SDS011;49845;47.130;142.766;2023-06-14T10:02:21;7.07;;;5.30;;
63699;SDS011;49845;47.130;142.766;2023-06-14T10:04:58;11.13;;;5.07;;
63699;SDS011;49845;47.130;142.766;2023-06-14T10:07:37;11.87;;;6.83;;
63699;SDS011;49845;47.130;142.766;2023-06-14T10:10:12;16.30;;;11.40;;
63699;SDS011;49845;47.130;142.766;2023-06-14T10:12:45;18.23;;;9.17;;
63699;SDS011;49845;47.130;142.766;2023-06-14T10:15:18;15.70;;;6.97;;
63699;SDS011;49845;47.130;142.766;2023-06-14T10:18:03;12.30;;;6.57;;
63699;SDS011;49845;47.130;142.766;2023-06-14T10:20:44;9.00;;;6.23;;
63699;SDS011;49845;47.130;142.766;2023-06-14T10:23:23;7.13;;;5.63;;
63699;SDS011;49845;47.130;142.766;2023-06-14T10:25:57;6.30;;;5.00;;
63699;SDS011;49845;47.130;142.766;2023-06-14T10:28:28;13.30;;;9.87;;
63699;SDS011;49845;47.130;142.766;2023-06-14T10:31:07;20.00;;;12.77;;
63699;SDS011;49845;47.130;142.766;2023-06-14T10:33:48;11.57;;;8.90;;
63699;SDS011;49845;47.130;142.766;2023-06-14T10:36:27;14.03;;;11.30;;
63699;SDS011;49845;47.130;142.766;2023-06-14T10:39:04;16.13;;;8.53;;
63699;SDS011;49845;47.130;142.766;2023-06-14T10:41:37;11.97;;;9.73;;
63699;SDS011;49845;47.130;142.766;2023-06-14T10:47:23;9.40;;;5.80;;
63699;SDS011;49845;47.130;142.766;2023-06-14T10:50:05;10.50;;;5.23;;
63699;SDS011;49845;47.130;142.766;2023-06-14T10:52:38;8.60;;;5.50;;
63699;SDS011;49845;47.130;142.766;2023-06-14T10:55:13;7.90;;;5.83;;
63699;SDS011;49845;47.130;142.766;2023-06-14T10:57:48;17.03;;;9.13;;
63699;SDS011;49845;47.130;142.766;2023-06-14T11:00:24;32.50;;;17.37;;
63699;SDS011;49845;47.130;142.766;2023-06-14T11:06:21;27.73;;;13.63;;
63699;SDS011;49845;47.130;142.766;2023-06-14T11:12:00;17.83;;;8.90;;
63699;SDS011;49845;47.130;142.766;2023-06-14T11:14:33;11.37;;;7.17;;
63699;SDS011;49845;47.130;142.766;2023-06-14T11:17:05;13.03;;;6.23;;
63699;SDS011;49845;47.130;142.766;2023-06-14T11:19:36;12.77;;;6.43;;
63699;SDS011;49845;47.130;142.766;2023-06-14T11:22:10;10.40;;;5.93;;
63699;SDS011;49845;47.130;142.766;2023-06-14T11:24:43;8.77;;;6.63;;
63699;SDS011;49845;47.130;142.766;2023-06-14T11:27:15;11.27;;;5.63;;
63699;SDS011;49845;47.130;142.766;2023-06-14T11:29:49;11.70;;;5.87;;
63699;SDS011;49845;47.130;142.766;2023-06-14T11:32:20;12.03;;;5.47;;
63699;SDS011;49845;47.130;142.766;2023-06-14T11:34:53;8.87;;;5.13;;
63699;SDS011;49845;47.130;142.766;2023-06-14T11:37:28;12.37;;;5.60;;
63699;SDS011;49845;47.130;142.766;2023-06-14T11:40:01;9.27;;;6.03;;
63699;SDS011;49845;47.130;142.766;2023-06-14T11:42:36;12.63;;;6.37;;
63699;SDS011;49845;47.130;142.766;2023-06-14T11:45:08;11.27;;;7.37;;
63699;SDS011;49845;47.130;142.766;2023-06-14T11:47:41;12.27;;;8.60;;
63699;SDS011;49845;47.130;142.766;2023-06-14T11:50:12;14.57;;;7.90;;
63699;SDS011;49845;47.130;142.766;2023-06-14T11:52:51;10.07;;;6.87;;
63699;SDS011;49845;47.130;142.766;2023-06-14T11:55:23;15.13;;;7.53;;
63699;SDS011;49845;47.130;142.766;2023-06-14T11:57:55;11.27;;;6.87;;
63699;SDS011;49845;47.130;142.766;2023-06-14T12:00:27;7.83;;;6.13;;
63699;SDS011;49845;47.130;142.766;2023-06-14T12:02:59;11.37;;;5.73;;
63699;SDS011;49845;47.130;142.766;2023-06-14T12:05:32;11.07;;;5.93;;
63699;SDS011;49845;47.130;142.766;2023-06-14T12:08:06;13.43;;;6.40;;
63699;SDS011;49845;47.130;142.766;2023-06-14T12:10:41;8.97;;;6.30;;
63699;SDS011;49845;47.130;142.766;2023-06-14T12:13:13;10.00;;;6.37;;
63699;SDS011;49845;47.130;142.766;2023-06-14T12:15:54;15.43;;;7.07;;
63699;SDS011;49845;47.130;142.766;2023-06-14T12:18:32;17.47;;;7.63;;
63699;SDS011;49845;47.130;142.766;2023-06-14T12:21:05;12.77;;;7.57;;
63699;SDS011;49845;47.130;142.766;2023-06-14T12:23:45;16.80;;;7.63;;
63699;SDS011;49845;47.130;142.766;2023-06-14T12:26:18;15.47;;;7.60;;
63699;SDS011;49845;47.130;142.766;2023-06-14T12:28:51;15.67;;;8.23;;
63699;SDS011;49845;47.130;142.766;2023-06-14T12:31:23;16.27;;;8.00;;
63699;SDS011;49845;47.130;142.766;2023-06-14T12:33:54;10.90;;;6.33;;
63699;SDS011;49845;47.130;142.766;2023-06-14T12:36:26;13.63;;;6.87;;
63699;SDS011;49845;47.130;142.766;2023-06-14T12:38:59;10.30;;;6.40;;
63699;SDS011;49845;47.130;142.766;2023-06-14T12:41:31;9.77;;;6.20;;
63699;SDS011;49845;47.130;142.766;2023-06-14T12:44:03;7.80;;;5.57;;
63699;SDS011;49845;47.130;142.766;2023-06-14T12:46:34;10.57;;;5.63;;
63699;SDS011;49845;47.130;142.766;2023-06-14T12:49:08;9.83;;;5.60;;
63699;SDS011;49845;47.130;142.766;2023-06-14T12:51:40;10.00;;;5.87;;
63699;SDS011;49845;47.130;142.766;2023-06-14T12:54:13;17.93;;;7.57;;
63699;SDS011;49845;47.130;142.766;2023-06-14T12:57:05;16.80;;;6.73;;
63699;SDS011;49845;47.130;142.766;2023-06-14T12:59:38;11.80;;;6.27;;
63699;SDS011;49845;47.130;142.766;2023-06-14T13:02:13;15.20;;;6.07;;
63699;SDS011;49845;47.130;142.766;2023-06-14T13:04:48;12.27;;;5.80;;
63699;SDS011;49845;47.130;142.766;2023-06-14T13:07:20;11.03;;;6.30;;
63699;SDS011;49845;47.130;142.766;2023-06-14T13:09:53;14.00;;;6.60;;
63699;SDS011;49845;47.130;142.766;2023-06-14T13:12:25;14.27;;;5.77;;
63699;SDS011;49845;47.130;142.766;2023-06-14T13:14:56;15.50;;;5.63;;
63699;SDS011;49845;47.130;142.766;2023-06-14T13:17:28;12.13;;;5.93;;
63699;SDS011;49845;47.130;142.766;2023-06-14T13:20:01;13.03;;;5.43;;
63699;SDS011;49845;47.130;142.766;2023-06-14T13:22:33;8.33;;;4.80;;
63699;SDS011;49845;47.130;142.766;2023-06-14T13:25:06;14.60;;;5.47;;
63699;SDS011;49845;47.130;142.766;2023-06-14T13:27:39;8.73;;;4.40;;
63699;SDS011;49845;47.130;142.766;2023-06-14T13:30:11;6.47;;;4.37;;
63699;SDS011;49845;47.130;142.766;2023-06-14T13:32:43;8.77;;;4.63;;
63699;SDS011;49845;47.130;142.766;2023-06-14T13:35:17;7.20;;;3.50;;
63699;SDS011;49845;47.130;142.766;2023-06-14T13:37:48;8.80;;;3.70;;
63699;SDS011;49845;47.130;142.766;2023-06-14T13:40:21;12.07;;;3.80;;
63699;SDS011;49845;47.130;142.766;2023-06-14T13:42:54;7.83;;;3.77;;
63699;SDS011;49845;47.130;142.766;2023-06-14T13:45:25;8.63;;;3.50;;
63699;SDS011;49845;47.130;142.766;2023-06-14T13:47:58;7.23;;;3.43;;
63699;SDS011;49845;47.130;142.766;2023-06-14T13:50:30;8.00;;;3.57;;
63699;SDS011;49845;47.130;142.766;2023-06-14T13:53:01;6.63;;;3.23;;
63699;SDS011;49845;47.130;142.766;2023-06-14T13:55:34;5.90;;;3.50;;
63699;SDS011;49845;47.130;142.766;2023-06-14T13:58:06;4.70;;;3.10;;
63699;SDS011;49845;47.130;142.766;2023-06-14T14:00:37;8.77;;;3.93;;
63699;SDS011;49845;47.130;142.766;2023-06-14T14:03:09;5.23;;;3.50;;
63699;SDS011;49845;47.130;142.766;2023-06-14T14:05:41;7.07;;;3.70;;
63699;SDS011;49845;47.130;142.766;2023-06-14T14:08:13;7.23;;;3.63;;
63699;SDS011;49845;47.130;142.766;2023-06-14T14:10:46;6.43;;;3.00;;
63699;SDS011;49845;47.130;142.766;2023-06-14T14:13:18;7.80;;;3.50;;
63699;SDS011;49845;47.130;142.766;2023-06-14T14:15:49;4.33;;;3.10;;
63699;SDS011;49845;47.130;142.766;2023-06-14T14:18:20;5.67;;;3.80;;
63699;SDS011;49845;47.130;142.766;2023-06-14T14:20:55;5.80;;;3.80;;
63699;SDS011;49845;47.130;142.766;2023-06-14T14:23:27;6.20;;;3.23;;
63699;SDS011;49845;47.130;142.766;2023-06-14T14:26:00;4.63;;;3.53;;
63699;SDS011;49845;47.130;142.766;2023-06-14T14:28:32;4.37;;;2.93;;
63699;SDS011;49845;47.130;142.766;2023-06-14T14:31:04;5.97;;;3.23;;
63699;SDS011;49845;47.130;142.766;2023-06-14T14:33:35;5.13;;;3.03;;
63699;SDS011;49845;47.130;142.766;2023-06-14T14:36:07;4.77;;;3.00;;
63699;SDS011;49845;47.130;142.766;2023-06-14T14:38:39;6.27;;;2.70;;
63699;SDS011;49845;47.130;142.766;2023-06-14T14:41:12;4.57;;;3.27;;
63699;SDS011;49845;47.130;142.766;2023-06-14T14:43:44;3.63;;;2.87;;
63699;SDS011;49845;47.130;142.766;2023-06-14T14:46:19;6.13;;;2.83;;
63699;SDS011;49845;47.130;142.766;2023-06-14T14:48:50;8.63;;;2.90;;
63699;SDS011;49845;47.130;142.766;2023-06-14T14:51:22;8.57;;;2.90;;
63699;SDS011;49845;47.130;142.766;2023-06-14T14:53:53;6.00;;;3.43;;
63699;SDS011;49845;47.130;142.766;2023-06-14T14:56:26;5.57;;;2.80;;